Time;durP1;ratioP1;P1;durP2;ratioP2;P2;SDS_P1;SDS_P2;PMS_P1;PMS_P2;Temp;Humidity;BMP_temperature;BMP_pressure;BME280_temperature;BME280_humidity;BME280_pressure;Samples;Min_cycle;Max_cycle;Signal;HPM_P1;HPM_P2
2022/05/07 00:00:08;;;;;;;24.23;13.13;;;10.70;67.80;;;;;;4154630;28;20040;-82
2022/05/07 00:02:09;;;;;;;22.35;12.85;;;10.70;68.00;;;;;;4151888;28;20076;-81
2022/05/07 00:04:09;;;;;;;20.52;12.20;;;10.70;67.70;;;;;;4155273;28;20029;-81
2022/05/07 00:06:10;;;;;;;22.80;12.75;;;10.60;67.90;;;;;;4153426;28;20037;-82
2022/05/07 00:08:11;;;;;;;22.90;12.50;;;10.60;68.20;;;;;;4162849;28;20018;-82
2022/05/07 00:10:12;;;;;;;24.35;12.88;;;10.60;68.30;;;;;;4162921;28;20037;-82
2022/05/07 00:12:13;;;;;;;21.08;12.50;;;10.60;68.60;;;;;;4164356;28;20041;-82
2022/05/07 00:14:14;;;;;;;22.58;12.75;;;10.60;68.30;;;;;;4152261;28;20036;-82
2022/05/07 00:18:34;;;;;;;21.88;12.93;;;10.70;68.90;;;;;;4154519;28;20083;-82
2022/05/07 00:20:35;;;;;;;21.10;12.65;;;10.60;69.20;;;;;;4151973;28;20121;-82
2022/05/07 00:22:36;;;;;;;31.10;13.02;;;10.60;69.00;;;;;;4154334;28;20499;-81
2022/05/07 00:24:37;;;;;;;26.08;13.52;;;10.50;69.20;;;;;;4156752;28;20100;-82
2022/05/07 00:26:38;;;;;;;24.85;13.15;;;10.50;69.60;;;;;;4149329;28;20025;-82
2022/05/07 00:28:38;;;;;;;27.70;13.77;;;10.50;69.40;;;;;;4148457;28;20076;-82
2022/05/07 00:30:39;;;;;;;24.60;12.88;;;10.50;69.50;;;;;;4151538;28;20038;-82
2022/05/07 00:32:39;;;;;;;23.45;12.95;;;10.50;69.40;;;;;;4154271;28;20045;-82
2022/05/07 00:34:40;;;;;;;22.98;12.98;;;10.50;69.60;;;;;;4152977;28;20025;-82
2022/05/07 00:36:41;;;;;;;22.08;12.98;;;10.50;70.30;;;;;;4162515;28;20456;-82
2022/05/07 00:38:42;;;;;;;34.45;13.57;;;10.50;70.00;;;;;;4148142;28;20042;-82
2022/05/07 00:40:43;;;;;;;23.77;13.82;;;10.50;70.10;;;;;;4152187;28;20030;-83
2022/05/07 00:42:43;;;;;;;29.83;15.20;;;10.50;70.20;;;;;;4148849;28;20048;-82
2022/05/07 00:44:44;;;;;;;22.42;13.52;;;10.50;70.50;;;;;;4152026;28;20103;-82
2022/05/07 00:46:46;;;;;;;26.83;14.13;;;10.50;70.30;;;;;;4154636;28;20048;-82
2022/05/07 00:48:47;;;;;;;23.60;13.77;;;10.50;70.30;;;;;;4155005;28;20725;-82
2022/05/07 00:53:07;;;;;;;29.45;14.30;;;10.50;70.60;;;;;;4151938;28;20029;-82
2022/05/07 00:55:09;;;;;;;27.25;14.95;;;10.50;70.60;;;;;;4154891;28;20133;-83
2022/05/07 00:57:12;;;;;;;25.05;14.57;;;10.50;70.80;;;;;;4155888;28;20075;-82
2022/05/07 00:59:12;;;;;;;28.85;14.73;;;10.50;71.00;;;;;;4149266;28;20065;-82
2022/05/07 01:01:13;;;;;;;29.20;15.75;;;10.50;71.20;;;;;;4153235;28;20033;-82
2022/05/07 01:03:14;;;;;;;28.58;15.38;;;10.50;71.20;;;;;;4156273;28;20518;-82
2022/05/07 01:05:15;;;;;;;27.23;16.23;;;10.60;71.20;;;;;;4154579;28;20048;-82
2022/05/07 01:07:15;;;;;;;31.10;16.23;;;10.50;71.40;;;;;;4152844;28;20112;-83
2022/05/07 01:09:16;;;;;;;35.78;17.63;;;10.50;71.70;;;;;;4148003;28;20032;-83
2022/05/07 01:11:18;;;;;;;33.92;16.67;;;10.50;72.00;;;;;;4153045;28;20415;-82
2022/05/07 01:13:19;;;;;;;29.27;15.60;;;10.50;71.70;;;;;;4157205;28;20463;-83
2022/05/07 01:15:20;;;;;;;32.05;16.17;;;10.50;72.00;;;;;;4155191;28;20049;-82
2022/05/07 01:17:21;;;;;;;33.83;16.75;;;10.50;71.90;;;;;;4166532;28;20033;-83
2022/05/07 01:19:21;;;;;;;32.28;16.52;;;10.60;72.00;;;;;;4146199;28;20030;-83
2022/05/07 01:21:22;;;;;;;30.00;16.08;;;10.50;72.10;;;;;;4151576;28;20047;-83
2022/05/07 01:23:24;;;;;;;35.63;17.30;;;10.60;72.10;;;;;;4134805;28;20045;-82
2022/05/07 01:25:24;;;;;;;39.28;17.75;;;10.60;72.50;;;;;;4149153;28;21158;-82
2022/05/07 01:27:25;;;;;;;32.25;16.75;;;10.60;72.70;;;;;;4151229;28;20038;-82
2022/05/07 01:29:26;;;;;;;33.20;17.65;;;10.60;72.50;;;;;;4144638;28;20088;-82
2022/05/07 01:31:27;;;;;;;38.35;19.58;;;10.60;72.50;;;;;;4146994;28;20038;-82
2022/05/07 01:33:33;;;;;;;37.28;18.73;;;10.60;72.80;;;;;;4150828;28;20087;-82
2022/05/07 01:35:33;;;;;;;35.83;18.90;;;10.60;72.80;;;;;;4159317;28;20052;-83
2022/05/07 01:37:34;;;;;;;37.58;18.02;;;10.60;72.90;;;;;;4163909;28;20026;-82
2022/05/07 01:39:35;;;;;;;38.42;19.02;;;10.60;73.00;;;;;;4154779;28;20115;-82
2022/05/07 01:41:36;;;;;;;37.38;18.30;;;10.60;73.60;;;;;;4154641;28;20030;-82
2022/05/07 01:43:36;;;;;;;36.55;19.80;;;10.60;73.10;;;;;;4146289;28;20044;-83
2022/05/07 01:45:37;;;;;;;37.03;19.58;;;10.60;73.20;;;;;;4148288;28;20030;-82
2022/05/07 01:49:58;;;;;;;37.15;18.77;;;10.60;73.30;;;;;;4167521;28;20029;-85
2022/05/07 01:51:59;;;;;;;41.50;20.10;;;10.60;73.20;;;;;;4151913;28;20121;-82
2022/05/07 01:53:59;;;;;;;37.30;19.50;;;10.70;73.70;;;;;;4153960;28;20052;-82
2022/05/07 01:56:00;;;;;;;42.55;20.02;;;10.70;73.40;;;;;;4157058;28;20042;-82
2022/05/07 01:58:02;;;;;;;45.13;19.60;;;10.70;73.50;;;;;;4157640;28;20491;-82
2022/05/07 02:00:03;;;;;;;37.72;19.95;;;10.60;73.50;;;;;;4167184;28;20029;-82
2022/05/07 02:02:04;;;;;;;41.05;21.42;;;10.70;73.60;;;;;;4151219;28;20025;-82
2022/05/07 02:04:05;;;;;;;39.83;20.15;;;10.70;74.00;;;;;;4162603;28;20040;-83
2022/05/07 02:06:05;;;;;;;35.88;19.58;;;10.60;73.70;;;;;;4158787;28;20034;-82
2022/05/07 02:08:06;;;;;;;43.78;21.13;;;10.70;74.00;;;;;;4151644;28;20482;-82
2022/05/07 02:10:07;;;;;;;45.33;20.67;;;10.60;74.20;;;;;;4156071;28;20025;-82
2022/05/07 02:12:08;;;;;;;36.17;18.20;;;10.60;73.90;;;;;;4153760;28;20114;-82
2022/05/07 02:14:09;;;;;;;41.22;21.98;;;10.70;73.90;;;;;;4152081;28;20464;-83
2022/05/07 02:16:09;;;;;;;35.90;19.95;;;10.70;74.10;;;;;;4154424;28;20041;-82
2022/05/07 02:18:10;;;;;;;44.83;21.30;;;10.70;74.10;;;;;;4157650;28;20539;-82
2022/05/07 02:20:11;;;;;;;36.47;20.02;;;10.70;74.00;;;;;;4152850;28;20117;-82
2022/05/07 02:22:12;;;;;;;42.63;21.02;;;10.70;74.00;;;;;;4151472;28;20371;-82
2022/05/07 02:24:13;;;;;;;40.25;20.92;;;10.70;74.20;;;;;;4155007;28;20022;-82
2022/05/07 02:26:13;;;;;;;39.47;21.48;;;10.70;74.20;;;;;;4150621;28;20037;-82
2022/05/07 02:28:16;;;;;;;38.58;21.42;;;10.70;74.10;;;;;;4170203;28;20044;-82
2022/05/07 02:30:19;;;;;;;42.63;22.53;;;10.70;74.30;;;;;;4151840;28;20028;-82
2022/05/07 02:32:20;;;;;;;45.25;21.98;;;10.70;74.30;;;;;;4147302;28;20085;-82
2022/05/07 02:34:20;;;;;;;41.80;20.98;;;10.70;74.50;;;;;;4153981;28;20033;-81
2022/05/07 02:36:21;;;;;;;39.15;21.45;;;10.70;74.40;;;;;;4149906;28;20036;-81
2022/05/07 02:38:22;;;;;;;39.40;21.33;;;10.70;75.40;;;;;;4152866;28;20032;-82
2022/05/07 02:40:22;;;;;;;43.58;22.27;;;10.70;74.50;;;;;;4159960;28;20049;-82
2022/05/07 02:42:39;;;;;;;44.70;22.33;;;10.70;74.60;;;;;;4149564;28;20029;-82
2022/05/07 02:44:40;;;;;;;35.92;20.17;;;10.70;74.40;;;;;;4148995;28;22019;-81
2022/05/07 02:46:41;;;;;;;40.03;21.73;;;10.70;74.40;;;;;;4153914;28;20126;-81
2022/05/07 02:48:44;;;;;;;46.83;22.10;;;10.70;74.70;;;;;;4171374;28;20379;-82
2022/05/07 02:50:45;;;;;;;41.95;21.50;;;10.70;74.60;;;;;;4153649;28;20135;-81
2022/05/07 02:52:45;;;;;;;38.83;21.58;;;10.70;75.00;;;;;;4148376;28;21659;-81
2022/05/07 02:54:46;;;;;;;42.25;22.20;;;10.70;74.80;;;;;;4148076;28;20056;-81
2022/05/07 02:56:47;;;;;;;40.15;21.70;;;10.70;74.90;;;;;;4156124;28;20103;-81
2022/05/07 02:58:48;;;;;;;39.92;21.25;;;10.70;74.80;;;;;;4151242;28;20112;-81
2022/05/07 03:00:49;;;;;;;40.55;21.98;;;10.70;74.80;;;;;;4164333;28;20033;-82
2022/05/07 03:02:50;;;;;;;45.45;24.00;;;10.70;74.90;;;;;;4150440;28;20056;-82
2022/05/07 03:04:52;;;;;;;36.75;20.15;;;10.70;75.10;;;;;;4154776;28;20034;-82
2022/05/07 03:06:53;;;;;;;41.47;21.05;;;10.80;75.00;;;;;;4154548;28;20046;-82
2022/05/07 03:08:53;;;;;;;40.90;21.70;;;10.70;74.90;;;;;;4169508;28;20656;-82
2022/05/07 03:10:54;;;;;;;39.60;21.58;;;10.70;75.00;;;;;;4151085;28;20041;-82
2022/05/07 03:12:54;;;;;;;38.45;21.00;;;10.80;75.10;;;;;;4147341;28;20060;-83
2022/05/07 03:14:55;;;;;;;42.92;22.58;;;10.70;75.00;;;;;;4153056;28;20033;-82
2022/05/07 03:16:55;;;;;;;40.88;20.70;;;10.80;75.30;;;;;;4151347;28;20036;-82
2022/05/07 03:18:56;;;;;;;43.25;21.48;;;10.80;75.20;;;;;;4153885;28;20104;-83
2022/05/07 03:20:57;;;;;;;46.33;21.67;;;10.80;75.90;;;;;;4147731;28;20026;-82
2022/05/07 03:22:58;;;;;;;40.00;21.42;;;10.80;75.40;;;;;;4149239;28;20052;-82
2022/05/07 03:24:59;;;;;;;39.35;20.60;;;10.80;75.30;;;;;;4151568;28;20034;-82
2022/05/07 03:27:00;;;;;;;44.10;20.95;;;10.80;75.40;;;;;;4150936;28;20104;-81
2022/05/07 03:29:01;;;;;;;46.22;21.48;;;10.80;75.30;;;;;;4160492;28;20029;-82
2022/05/07 03:31:01;;;;;;;42.85;22.67;;;10.80;75.50;;;;;;4155016;28;20103;-82
2022/05/07 03:33:02;;;;;;;49.25;22.60;;;10.80;75.40;;;;;;4149503;28;20072;-82
2022/05/07 03:35:03;;;;;;;37.28;20.38;;;10.80;75.40;;;;;;4155208;28;21576;-82
2022/05/07 03:37:04;;;;;;;43.13;21.55;;;10.90;75.40;;;;;;4156786;28;20025;-82
2022/05/07 03:39:05;;;;;;;45.08;23.38;;;10.80;75.50;;;;;;4159675;28;20109;-82
2022/05/07 03:41:05;;;;;;;42.65;21.98;;;10.80;75.80;;;;;;4152176;28;20545;-82
2022/05/07 03:43:07;;;;;;;48.75;23.48;;;10.80;75.70;;;;;;4153925;28;20025;-83
2022/05/07 03:45:08;;;;;;;42.92;21.27;;;10.80;75.80;;;;;;4147204;28;20080;-83
2022/05/07 03:47:08;;;;;;;42.63;21.92;;;10.90;75.60;;;;;;4156513;28;20108;-82
2022/05/07 03:49:09;;;;;;;42.45;21.63;;;10.90;75.70;;;;;;4140092;28;20028;-82
2022/05/07 03:51:10;;;;;;;39.75;20.27;;;10.90;75.70;;;;;;4156842;28;20021;-82
2022/05/07 03:55:29;;;;;;;42.42;22.23;;;10.90;76.00;;;;;;4149446;28;20041;-82
2022/05/07 03:57:30;;;;;;;48.97;22.52;;;10.90;75.70;;;;;;4145925;28;20026;-81
2022/05/07 03:59:31;;;;;;;44.45;21.80;;;10.90;75.70;;;;;;4152001;28;20063;-82
2022/05/07 04:01:31;;;;;;;41.25;23.20;;;11.00;75.90;;;;;;4151965;28;20089;-83
2022/05/07 04:03:32;;;;;;;41.33;21.55;;;10.90;76.10;;;;;;4152855;28;20021;-82
2022/05/07 04:05:33;;;;;;;46.28;23.52;;;10.90;76.00;;;;;;4157185;28;20029;-82
2022/05/07 04:07:33;;;;;;;44.30;22.48;;;11.00;76.10;;;;;;4160890;28;20486;-82
2022/05/07 04:09:35;;;;;;;45.72;23.52;;;11.00;76.10;;;;;;4160674;28;20033;-82
2022/05/07 04:11:36;;;;;;;50.17;22.63;;;11.00;76.20;;;;;;4152922;28;20123;-82
2022/05/07 04:13:36;;;;;;;42.58;21.80;;;11.00;76.30;;;;;;4150719;28;20045;-82
2022/05/07 04:15:38;;;;;;;47.78;22.63;;;11.00;76.10;;;;;;4138387;28;20142;-82
2022/05/07 04:17:38;;;;;;;44.85;22.17;;;11.00;76.20;;;;;;4158276;28;20025;-82
2022/05/07 04:19:39;;;;;;;49.13;23.60;;;11.00;76.10;;;;;;4152475;28;20510;-83
2022/05/07 04:21:40;;;;;;;45.17;23.48;;;11.00;76.30;;;;;;4157798;28;20030;-82
2022/05/07 04:23:40;;;;;;;44.08;22.05;;;11.00;76.40;;;;;;4152334;28;20224;-82
2022/05/07 04:25:42;;;;;;;47.08;23.90;;;11.00;76.40;;;;;;4153722;28;20034;-82
2022/05/07 04:27:42;;;;;;;46.55;24.10;;;11.00;76.40;;;;;;4148939;28;20037;-82
2022/05/07 04:29:43;;;;;;;40.85;21.92;;;11.00;76.50;;;;;;4163748;28;20037;-82
2022/05/07 04:31:44;;;;;;;42.67;23.27;;;11.10;76.50;;;;;;4149793;28;20033;-82
2022/05/07 04:33:45;;;;;;;48.20;22.42;;;11.10;76.60;;;;;;4149012;28;20065;-82
2022/05/07 04:35:48;;;;;;;45.78;23.02;;;11.10;76.50;;;;;;4148017;28;20097;-82
2022/05/07 04:37:49;;;;;;;40.97;21.33;;;11.10;76.50;;;;;;4153387;28;20839;-82
2022/05/07 04:39:49;;;;;;;41.40;21.33;;;11.20;76.30;;;;;;4165562;28;20075;-82
2022/05/07 04:41:50;;;;;;;40.08;21.83;;;11.10;76.90;;;;;;4159875;28;20029;-82
2022/05/07 04:43:50;;;;;;;41.63;21.65;;;11.10;76.30;;;;;;4152726;28;20026;-82
2022/05/07 04:45:51;;;;;;;43.83;22.17;;;11.10;76.50;;;;;;4148245;28;20029;-82
2022/05/07 04:47:52;;;;;;;42.50;22.38;;;11.20;76.40;;;;;;4141227;28;20521;-82
2022/05/07 04:49:53;;;;;;;43.67;21.73;;;11.20;76.30;;;;;;4150225;28;20034;-82
2022/05/07 04:51:53;;;;;;;43.97;22.10;;;11.20;76.40;;;;;;4145690;28;20155;-82
2022/05/07 04:53:54;;;;;;;39.90;21.58;;;11.20;76.40;;;;;;4149760;28;20700;-82
2022/05/07 04:55:54;;;;;;;44.22;22.48;;;11.20;76.50;;;;;;4149847;28;20033;-82
2022/05/07 04:57:55;;;;;;;46.22;22.02;;;11.20;76.40;;;;;;4156121;28;20029;-83
2022/05/07 04:59:56;;;;;;;41.47;21.92;;;11.20;76.40;;;;;;4148160;28;20021;-82
2022/05/07 05:01:57;;;;;;;45.92;21.73;;;11.20;76.40;;;;;;4143895;28;20134;-82
2022/05/07 05:03:58;;;;;;;41.63;20.55;;;11.30;76.40;;;;;;4149171;28;20025;-82
2022/05/07 05:05:59;;;;;;;49.33;23.15;;;11.30;76.40;;;;;;4160590;28;20454;-81
2022/05/07 05:07:59;;;;;;;41.05;21.38;;;11.40;76.50;;;;;;4147207;28;20021;-82
2022/05/07 05:10:00;;;;;;;39.58;21.60;;;11.30;76.40;;;;;;4160701;28;20029;-82
2022/05/07 05:12:00;;;;;;;36.47;20.83;;;11.30;76.30;;;;;;4151435;28;20021;-82
2022/05/07 05:14:01;;;;;;;41.80;21.40;;;11.40;76.30;;;;;;4137508;28;20026;-82
2022/05/07 05:16:02;;;;;;;42.05;21.15;;;11.40;76.30;;;;;;4152573;28;20033;-82
2022/05/07 05:18:04;;;;;;;39.08;21.33;;;11.40;76.20;;;;;;4147462;28;20064;-82
2022/05/07 05:20:05;;;;;;;45.80;22.00;;;11.40;76.10;;;;;;4155070;28;20037;-83
2022/05/07 05:22:06;;;;;;;45.47;20.48;;;11.40;76.80;;;;;;4149370;28;20040;-83
2022/05/07 05:24:07;;;;;;;42.83;20.67;;;11.40;76.10;;;;;;4153582;28;20450;-82
2022/05/07 05:26:08;;;;;;;48.38;22.70;;;11.40;76.20;;;;;;4155589;28;20029;-82
2022/05/07 05:28:09;;;;;;;39.83;20.23;;;11.40;76.00;;;;;;4142982;28;20102;-82
2022/05/07 05:30:10;;;;;;;42.95;21.90;;;11.50;76.20;;;;;;4154036;28;20025;-82
2022/05/07 05:32:17;;;;;;;41.92;21.45;;;11.50;76.10;;;;;;4149174;28;20040;-83
2022/05/07 05:34:18;;;;;;;42.55;19.95;;;11.50;76.20;;;;;;4148393;28;20952;-83
2022/05/07 05:36:18;;;;;;;44.78;20.42;;;11.50;76.10;;;;;;4152902;28;20048;-82
2022/05/07 05:38:19;;;;;;;40.33;20.80;;;11.50;76.10;;;;;;4150708;28;20104;-82
2022/05/07 05:40:19;;;;;;;43.25;21.63;;;11.60;76.20;;;;;;4146547;28;20033;-83
2022/05/07 05:42:20;;;;;;;41.78;20.17;;;11.50;76.20;;;;;;4153107;28;20411;-83
2022/05/07 05:44:21;;;;;;;37.60;19.13;;;11.60;76.30;;;;;;4165510;28;20029;-83
2022/05/07 05:46:22;;;;;;;40.45;20.33;;;11.60;76.30;;;;;;4145700;28;20059;-83
2022/05/07 05:48:24;;;;;;;39.53;19.70;;;11.60;76.40;;;;;;4144312;28;20029;-83
2022/05/07 05:50:24;;;;;;;38.70;18.13;;;11.60;76.50;;;;;;4152207;28;20666;-83
2022/05/07 05:52:26;;;;;;;36.00;18.58;;;11.60;76.50;;;;;;4149611;28;20038;-82
2022/05/07 05:54:28;;;;;;;39.38;19.73;;;11.70;76.60;;;;;;4156305;28;20033;-83
2022/05/07 05:56:28;;;;;;;42.05;19.63;;;11.60;76.60;;;;;;4153106;28;20037;-84
2022/05/07 05:58:33;;;;;;;40.28;19.50;;;11.70;76.70;;;;;;4150487;28;20399;-83
2022/05/07 06:00:33;;;;;;;38.67;19.52;;;11.70;76.80;;;;;;4153486;28;20032;-83
2022/05/07 06:02:34;;;;;;;47.08;21.00;;;11.70;76.90;;;;;;4145456;28;20022;-84
2022/05/07 06:04:35;;;;;;;38.83;20.35;;;11.70;77.00;;;;;;4143194;28;20034;-82
2022/05/07 06:06:35;;;;;;;40.55;19.25;;;11.70;77.10;;;;;;4163861;28;20033;-83
2022/05/07 06:08:36;;;;;;;39.13;19.45;;;11.70;77.10;;;;;;4144670;28;21109;-83
2022/05/07 06:10:37;;;;;;;36.15;18.75;;;11.70;77.20;;;;;;4157173;28;20120;-82
2022/05/07 06:12:38;;;;;;;40.00;18.98;;;11.70;77.30;;;;;;4147764;28;20042;-83
2022/05/07 06:14:39;;;;;;;40.10;20.17;;;11.70;77.40;;;;;;4151704;28;20029;-83
2022/05/07 06:16:39;;;;;;;37.67;19.42;;;11.80;77.60;;;;;;4151572;28;20041;-83
2022/05/07 06:18:40;;;;;;;35.22;18.40;;;11.80;77.80;;;;;;4153862;28;20495;-83
2022/05/07 06:20:41;;;;;;;39.95;18.85;;;11.80;77.70;;;;;;4152043;28;20024;-84
2022/05/07 06:22:42;;;;;;;40.03;17.73;;;11.80;77.90;;;;;;4148875;28;20029;-83
2022/05/07 06:29:20;;;;;;;34.33;17.27;;;11.90;77.90;;;;;;4147753;28;20033;-83
2022/05/07 06:31:21;;;;;;;29.48;16.08;;;11.90;77.80;;;;;;4138398;28;20164;-83
2022/05/07 06:33:22;;;;;;;29.27;15.88;;;11.90;77.90;;;;;;4139924;28;20048;-83
2022/05/07 06:35:22;;;;;;;29.98;15.25;;;12.00;77.90;;;;;;4151368;28;20120;-83
2022/05/07 06:37:23;;;;;;;30.05;15.90;;;12.00;77.80;;;;;;4149630;28;20029;-83
2022/05/07 06:39:24;;;;;;;28.52;15.10;;;12.00;77.80;;;;;;4146167;28;20042;-83
2022/05/07 06:41:25;;;;;;;31.35;15.60;;;12.00;77.80;;;;;;4148442;28;20034;-82
2022/05/07 06:43:25;;;;;;;32.33;15.00;;;12.00;77.60;;;;;;4148566;28;20402;-84
2022/05/07 06:45:26;;;;;;;30.83;14.57;;;12.00;77.60;;;;;;4150738;28;20642;-83
2022/05/07 06:47:26;;;;;;;31.45;15.55;;;12.00;77.50;;;;;;4158821;28;20036;-82
2022/05/07 06:49:27;;;;;;;27.15;14.85;;;12.00;77.50;;;;;;4154599;28;20675;-83
2022/05/07 06:51:28;;;;;;;31.38;14.10;;;12.00;77.50;;;;;;4151071;28;20034;-83
2022/05/07 06:53:28;;;;;;;29.73;14.35;;;12.00;77.40;;;;;;4151729;28;20033;-83
2022/05/07 06:55:32;;;;;;;27.45;13.43;;;12.00;77.50;;;;;;4151202;28;20029;-83
2022/05/07 06:57:32;;;;;;;28.33;12.98;;;12.00;77.40;;;;;;4153893;28;20195;-82
2022/05/07 06:59:33;;;;;;;22.80;12.48;;;12.00;77.60;;;;;;4153846;28;20029;-82
2022/05/07 07:01:34;;;;;;;27.55;12.68;;;12.10;77.70;;;;;;4157052;28;20045;-82
2022/05/07 07:03:36;;;;;;;24.65;12.15;;;12.00;77.80;;;;;;4145926;28;20128;-82
2022/05/07 07:05:36;;;;;;;27.63;12.70;;;12.00;78.00;;;;;;4147989;28;20040;-83
2022/05/07 07:07:37;;;;;;;22.23;11.25;;;12.10;78.30;;;;;;4153738;28;20033;-82
2022/05/07 07:09:38;;;;;;;25.30;11.75;;;12.10;78.70;;;;;;4156794;28;20042;-83
2022/05/07 07:11:40;;;;;;;21.42;10.63;;;12.10;78.70;;;;;;4145605;28;20034;-83
2022/05/07 07:13:41;;;;;;;21.88;10.18;;;12.10;78.70;;;;;;4150759;28;20119;-82
2022/05/07 07:15:42;;;;;;;18.50;9.60;;;12.10;78.80;;;;;;4154404;28;20030;-83
2022/05/07 07:17:44;;;;;;;19.20;9.35;;;12.10;78.70;;;;;;4151569;28;20097;-84
2022/05/07 07:19:45;;;;;;;19.58;8.43;;;12.20;78.80;;;;;;4162154;28;20044;-82
2022/05/07 07:21:46;;;;;;;13.90;8.48;;;12.20;78.80;;;;;;4147316;28;20058;-83
2022/05/07 07:23:47;;;;;;;13.00;7.43;;;12.20;78.80;;;;;;4148573;28;20033;-84
2022/05/07 07:25:48;;;;;;;12.57;7.50;;;12.30;78.90;;;;;;4150385;28;20021;-83
2022/05/07 07:27:49;;;;;;;13.27;7.30;;;12.30;78.80;;;;;;4144337;28;20498;-83
2022/05/07 07:29:49;;;;;;;12.95;7.13;;;12.30;78.60;;;;;;4145053;28;20033;-82
2022/05/07 07:31:50;;;;;;;12.05;6.57;;;12.30;78.20;;;;;;4142513;28;20033;-83
2022/05/07 07:33:51;;;;;;;16.55;6.47;;;12.40;78.30;;;;;;4154339;28;20037;-83
2022/05/07 07:35:54;;;;;;;11.02;5.90;;;12.40;77.90;;;;;;4169977;28;20034;-83
2022/05/07 07:37:55;;;;;;;12.40;6.07;;;12.40;77.80;;;;;;4146391;28;20175;-84
2022/05/07 07:39:56;;;;;;;11.32;5.28;;;12.50;77.80;;;;;;4154092;28;20458;-81
2022/05/07 07:41:58;;;;;;;9.35;5.47;;;12.50;77.60;;;;;;4156541;28;20033;-84
2022/05/07 07:43:58;;;;;;;10.32;5.80;;;12.50;77.40;;;;;;4151118;28;20040;-83
2022/05/07 07:48:19;;;;;;;8.00;5.28;;;12.60;78.20;;;;;;4158345;28;20116;-83
2022/05/07 07:50:19;;;;;;;9.57;5.05;;;12.70;77.40;;;;;;4158711;28;20024;-83
2022/05/07 07:52:20;;;;;;;9.82;5.28;;;12.70;76.90;;;;;;4153161;28;20025;-83
2022/05/07 07:54:22;;;;;;;8.38;4.97;;;12.70;76.10;;;;;;4168509;28;20026;-83
2022/05/07 07:56:22;;;;;;;9.82;5.03;;;12.80;76.00;;;;;;4151015;28;20068;-82
2022/05/07 07:58:24;;;;;;;8.75;4.93;;;12.90;76.10;;;;;;4166144;28;20700;-82
2022/05/07 08:00:26;;;;;;;8.10;4.30;;;12.90;76.00;;;;;;4151930;28;20041;-83
2022/05/07 08:02:26;;;;;;;9.45;4.50;;;13.00;75.90;;;;;;4156537;28;20024;-83
2022/05/07 08:04:27;;;;;;;7.25;4.32;;;13.00;75.00;;;;;;4147087;28;20816;-82
2022/05/07 08:06:30;;;;;;;9.85;5.00;;;13.10;75.00;;;;;;4150129;28;20033;-82
2022/05/07 08:13:10;;;;;;;7.85;3.88;;;13.20;73.70;;;;;;4145180;28;20815;-87
2022/05/07 08:15:11;;;;;;;7.50;4.45;;;13.30;72.80;;;;;;4154996;28;20116;-86
2022/05/07 08:17:13;;;;;;;7.03;4.05;;;13.30;72.40;;;;;;4153518;28;20160;-86
2022/05/07 08:19:14;;;;;;;8.30;4.13;;;13.40;72.30;;;;;;4148252;28;20474;-87
2022/05/07 08:21:15;;;;;;;7.32;4.55;;;13.40;71.50;;;;;;4163214;28;20021;-86
2022/05/07 08:23:16;;;;;;;8.68;4.38;;;13.50;71.00;;;;;;4160009;28;20084;-87
2022/05/07 08:25:16;;;;;;;7.82;4.10;;;13.50;71.30;;;;;;4154246;28;20041;-88
2022/05/07 08:27:17;;;;;;;9.77;4.72;;;13.60;71.00;;;;;;4178824;28;20033;-88
2022/05/07 08:29:17;;;;;;;12.48;4.80;;;13.70;70.90;;;;;;4161799;28;20038;-89
2022/05/07 08:31:23;;;;;;;7.57;4.13;;;13.80;70.70;;;;;;4159060;28;20029;-86
2022/05/07 08:33:23;;;;;;;8.15;4.30;;;13.90;69.90;;;;;;4145075;28;20724;-87
2022/05/07 08:35:24;;;;;;;9.88;4.32;;;14.00;69.20;;;;;;4145020;28;20052;-87
2022/05/07 08:37:25;;;;;;;8.82;4.68;;;14.10;69.90;;;;;;4146907;28;20029;-84
2022/05/07 08:39:27;;;;;;;9.85;4.43;;;14.20;69.30;;;;;;4147046;28;20034;-83
2022/05/07 08:41:28;;;;;;;8.05;4.93;;;14.30;69.30;;;;;;4156436;28;20681;-84
2022/05/07 08:43:36;;;;;;;6.45;3.80;;;14.40;68.50;;;;;;4151908;28;20045;-84
2022/05/07 08:45:40;;;;;;;8.90;4.43;;;14.50;68.30;;;;;;4157180;28;20075;-84
2022/05/07 08:47:42;;;;;;;8.05;4.10;;;14.50;67.40;;;;;;4153548;28;20053;-84
2022/05/07 08:49:46;;;;;;;7.68;4.13;;;14.60;66.10;;;;;;4153560;28;20034;-85
2022/05/07 08:51:47;;;;;;;7.20;3.90;;;14.70;66.20;;;;;;4155573;28;20720;-83
2022/05/07 08:53:53;;;;;;;6.03;3.85;;;14.80;65.40;;;;;;4159754;28;20084;-84
2022/05/07 08:55:57;;;;;;;6.05;3.83;;;14.80;63.60;;;;;;4157991;28;20030;-84
2022/05/07 08:58:02;;;;;;;7.65;3.58;;;14.90;62.80;;;;;;4156601;28;20068;-84
2022/05/07 09:00:04;;;;;;;8.90;3.65;;;14.90;62.70;;;;;;4157316;28;20037;-84
2022/05/07 09:02:05;;;;;;;6.68;2.88;;;15.00;62.70;;;;;;4155061;28;20375;-84
2022/05/07 09:04:09;;;;;;;5.40;3.55;;;15.10;62.90;;;;;;4156007;28;20100;-84
2022/05/07 09:06:17;;;;;;;8.27;4.00;;;15.10;62.80;;;;;;4151592;28;20083;-84
2022/05/07 09:08:26;;;;;;;6.93;3.70;;;15.20;62.70;;;;;;4153137;28;20134;-84
2022/05/07 09:10:29;;;;;;;9.57;3.38;;;15.20;61.70;;;;;;4149904;28;20388;-83
2022/05/07 09:12:30;;;;;;;8.20;3.75;;;15.30;61.30;;;;;;4157184;28;20108;-84
2022/05/07 09:14:31;;;;;;;8.00;3.72;;;15.40;60.90;;;;;;4167064;28;20060;-84
2022/05/07 09:16:50;;;;;;;7.10;3.58;;;15.40;60.90;;;;;;4150921;28;20030;-84
2022/05/07 09:18:50;;;;;;;9.90;3.28;;;15.50;61.00;;;;;;4153620;28;20033;-84
2022/05/07 09:21:15;;;;;;;6.55;2.83;;;15.60;60.30;;;;;;4156785;28;20056;-84
2022/05/07 09:23:22;;;;;;;9.60;2.67;;;15.60;59.20;;;;;;4158757;28;20033;-84
2022/05/07 09:25:27;;;;;;;6.65;2.65;;;15.70;58.30;;;;;;4150978;28;20030;-84
2022/05/07 09:27:28;;;;;;;5.78;2.85;;;15.80;58.70;;;;;;4161998;28;20499;-84
2022/05/07 09:29:29;;;;;;;5.53;2.45;;;15.80;58.70;;;;;;4154524;28;20025;-84
2022/05/07 09:31:34;;;;;;;10.07;2.53;;;15.80;58.50;;;;;;4152359;28;20033;-83
2022/05/07 09:33:35;;;;;;;5.07;2.05;;;15.90;57.90;;;;;;4146423;28;21079;-83
2022/05/07 09:35:49;;;;;;;6.25;2.20;;;15.90;57.50;;;;;;4156520;28;20053;-84
2022/05/07 09:37:58;;;;;;;5.97;2.33;;;15.90;56.80;;;;;;4155708;28;20032;-84
2022/05/07 09:40:04;;;;;;;6.30;2.22;;;15.90;56.60;;;;;;4158411;28;20108;-83
2022/05/07 09:42:07;;;;;;;3.88;1.92;;;16.00;56.90;;;;;;4154326;28;20511;-84
2022/05/07 09:44:08;;;;;;;5.03;2.13;;;16.00;56.90;;;;;;4151064;28;20072;-84
2022/05/07 09:46:10;;;;;;;7.35;2.10;;;16.00;56.30;;;;;;4152272;28;20052;-84
2022/05/07 09:48:12;;;;;;;7.60;2.40;;;16.00;55.80;;;;;;4153522;28;20113;-85
2022/05/07 09:52:33;;;;;;;7.38;2.40;;;15.90;56.10;;;;;;4140512;28;20029;-83
2022/05/07 09:59:14;;;;;;;6.03;2.33;;;16.00;56.50;;;;;;4150325;28;20037;-84
2022/05/07 10:01:20;;;;;;;4.65;1.90;;;16.10;56.20;;;;;;4152298;28;20133;-84
2022/05/07 10:03:50;;;;;;;5.85;1.73;;;16.10;56.10;;;;;;4148937;28;20101;-84
2022/05/07 10:06:03;;;;;;;4.28;1.83;;;16.10;56.20;;;;;;4147300;28;20035;-83
2022/05/07 10:08:27;;;;;;;4.88;1.92;;;16.20;55.90;;;;;;4152484;28;20030;-84
2022/05/07 10:10:33;;;;;;;4.90;1.70;;;16.20;55.30;;;;;;4141203;28;20030;-83
2022/05/07 10:12:35;;;;;;;4.18;1.77;;;16.20;55.00;;;;;;4160705;28;20115;-83
2022/05/07 10:14:35;;;;;;;5.82;1.45;;;16.20;54.70;;;;;;4143360;28;20089;-82
2022/05/07 10:16:36;;;;;;;5.05;1.60;;;16.20;54.60;;;;;;4145772;28;20592;-83
2022/05/07 10:18:41;;;;;;;5.40;1.52;;;16.20;53.70;;;;;;4129356;28;20026;-83
2022/05/07 10:20:44;;;;;;;5.65;1.50;;;16.30;54.40;;;;;;4157556;28;20487;-84
2022/05/07 10:22:55;;;;;;;8.23;2.13;;;16.30;54.10;;;;;;4150813;28;20091;-82
2022/05/07 10:25:13;;;;;;;6.72;1.60;;;16.30;54.40;;;;;;4155053;28;21535;-83
2022/05/07 10:27:30;;;;;;;6.93;1.58;;;16.30;53.40;;;;;;4151554;28;20632;-83
2022/05/07 10:29:38;;;;;;;3.67;1.50;;;16.30;54.10;;;;;;4160661;28;20167;-83
2022/05/07 10:31:45;;;;;;;6.72;1.85;;;16.40;54.00;;;;;;4146080;28;20037;-82
2022/05/07 10:33:46;;;;;;;4.88;1.65;;;16.40;55.10;;;;;;4150366;28;20065;-82
2022/05/07 10:35:55;;;;;;;4.13;1.60;;;16.50;54.60;;;;;;4146258;28;21341;-82
2022/05/07 10:38:10;;;;;;;7.32;2.20;;;16.50;53.90;;;;;;4159502;28;20530;-84
2022/05/07 10:40:12;;;;;;;6.57;1.85;;;16.60;54.00;;;;;;4164389;28;20100;-83
2022/05/07 10:42:16;;;;;;;3.67;1.70;;;16.70;54.10;;;;;;4148743;28;20553;-83
2022/05/07 10:44:33;;;;;;;3.60;1.35;;;16.70;53.80;;;;;;4151400;28;20045;-83
2022/05/07 10:46:44;;;;;;;7.63;2.22;;;16.70;51.80;;;;;;4170465;28;20025;-83
2022/05/07 10:48:50;;;;;;;4.28;1.50;;;16.80;52.00;;;;;;4150562;28;21224;-82
2022/05/07 10:50:52;;;;;;;5.63;1.60;;;16.80;52.00;;;;;;4149893;28;20115;-82